Time;durP1;ratioP1;P1;durP2;ratioP2;P2;SDS_P1;SDS_P2;PMS_P1;PMS_P2;Temp;Humidity;BMP_temperature;BMP_pressure;BME280_temperature;BME280_humidity;BME280_pressure;Samples;Min_cycle;Max_cycle;Signal;HPM_P1;HPM_P2
2023/08/07 00:00:50;;;;;;;5.38;1.40;;;;;;;21.35;53.78;101288.53;5001059;28;20123;-76
2023/08/07 00:03:18;;;;;;;5.65;1.63;;;;;;;21.34;53.39;101290.31;4999911;28;20418;-72
2023/08/07 00:05:51;;;;;;;4.78;1.30;;;;;;;21.33;53.38;101285.16;5000390;28;20591;-72
2023/08/07 00:08:17;;;;;;;3.90;1.27;;;;;;;21.34;53.27;101285.00;5000870;28;20115;-71
2023/08/07 00:10:42;;;;;;;4.20;1.50;;;;;;;21.33;53.51;101282.50;4999500;28;20172;-71
2023/08/07 00:13:08;;;;;;;4.72;1.50;;;;;;;21.32;53.36;101283.50;5001239;28;20033;-72
2023/08/07 00:15:33;;;;;;;5.68;1.50;;;;;;;21.32;53.45;101278.19;5000155;28;20034;-76
2023/08/07 00:17:59;;;;;;;5.55;1.33;;;;;;;21.32;53.40;101275.53;5000590;28;20064;-72
2023/08/07 00:20:25;;;;;;;7.18;1.58;;;;;;;21.30;53.26;101278.31;5000698;28;20034;-72
2023/08/07 00:22:50;;;;;;;4.15;1.38;;;;;;;21.32;53.24;101294.91;5000893;28;20724;-76
2023/08/07 00:25:16;;;;;;;5.05;1.40;;;;;;;21.31;53.13;101290.59;5003709;28;20029;-71
2023/08/07 00:27:41;;;;;;;4.78;1.55;;;;;;;21.30;53.49;101296.03;5004812;28;20026;-76
2023/08/07 00:30:07;;;;;;;6.20;1.50;;;;;;;21.31;53.23;101295.88;5004739;28;20025;-72
2023/08/07 00:32:32;;;;;;;5.15;1.38;;;;;;;21.29;53.42;101310.25;5004453;28;20319;-73
2023/08/07 00:34:57;;;;;;;5.40;1.92;;;;;;;21.30;53.25;101322.53;5003762;28;20038;-78
2023/08/07 00:37:23;;;;;;;4.90;1.50;;;;;;;21.30;53.34;101311.94;5004160;28;20029;-71
2023/08/07 00:39:48;;;;;;;6.00;1.60;;;;;;;21.30;53.46;101311.94;5004227;28;20030;-75
2023/08/07 00:42:13;;;;;;;5.32;1.38;;;;;;;21.30;53.13;101311.94;5004025;28;20034;-78
2023/08/07 00:44:38;;;;;;;5.03;1.45;;;;;;;21.29;53.29;101302.31;5003502;28;20037;-75
2023/08/07 00:47:05;;;;;;;4.18;1.42;;;;;;;21.28;53.34;101301.44;5004014;28;20041;-77
2023/08/07 00:49:30;;;;;;;6.55;1.35;;;;;;;21.29;53.33;101310.25;5003585;28;20030;-75
2023/08/07 00:51:56;;;;;;;3.80;1.25;;;;;;;21.28;53.40;101316.53;5017149;28;20042;-81
2023/08/07 00:54:22;;;;;;;5.55;1.50;;;;;;;21.28;53.16;101320.00;5019256;28;20030;-72
2023/08/07 00:56:47;;;;;;;4.78;1.30;;;;;;;21.27;53.49;101328.97;5003451;28;20418;-72
2023/08/07 00:59:15;;;;;;;5.47;1.52;;;;;;;21.28;53.52;101335.09;5003252;28;20042;-71
2023/08/07 01:01:40;;;;;;;3.90;1.17;;;;;;;21.27;53.69;101318.34;5003323;28;20057;-75
2023/08/07 01:04:06;;;;;;;3.80;1.30;;;;;;;21.27;53.52;101309.53;5003588;28;20133;-73
2023/08/07 01:06:31;;;;;;;4.30;1.52;;;;;;;21.28;53.48;101303.28;5003090;28;20113;-72
2023/08/07 01:08:57;;;;;;;5.80;1.50;;;;;;;21.27;53.26;101301.59;5004332;28;20044;-71
2023/08/07 01:11:43;;;;;;;4.78;1.40;;;;;;;21.24;53.14;101305.38;5003944;28;20494;-71
2023/08/07 01:14:20;;;;;;;4.38;1.40;;;;;;;21.25;53.38;101309.66;5000550;28;20141;-72
2023/08/07 01:17:03;;;;;;;5.30;1.77;;;;;;;21.25;53.17;101308.84;5003552;28;20034;-83
2023/08/07 01:19:29;;;;;;;5.53;1.40;;;;;;;21.25;53.13;101312.31;5002922;28;20029;-73
2023/08/07 01:22:24;;;;;;;6.38;1.50;;;;;;;21.24;53.11;101315.97;5003737;28;20038;-72
2023/08/07 01:24:50;;;;;;;3.92;1.42;;;;;;;21.25;53.17;101317.63;5005106;28;20041;-71
2023/08/07 01:27:30;;;;;;;6.05;1.50;;;;;;;21.22;53.25;101317.91;5002170;28;20030;-72
2023/08/07 01:30:26;;;;;;;4.40;1.73;;;;;;;21.22;53.44;101323.22;5002691;28;20141;-72
2023/08/07 01:33:24;;;;;;;5.03;1.33;;;;;;;21.23;53.42;101324.88;5002276;28;20038;-77
2023/08/07 01:35:55;;;;;;;4.22;1.40;;;;;;;21.24;53.16;101328.34;4997341;28;20057;-76
2023/08/07 01:38:24;;;;;;;5.57;1.40;;;;;;;21.21;53.09;101345.38;5002906;28;20076;-73
2023/08/07 01:40:50;;;;;;;5.05;1.65;;;;;;;21.22;53.27;101327.66;5002379;28;20037;-72
2023/08/07 01:43:16;;;;;;;5.93;2.03;;;;;;;21.21;53.19;101329.47;5017524;28;20065;-70
2023/08/07 01:45:42;;;;;;;4.57;1.60;;;;;;;21.22;53.47;101339.13;5004144;28;20037;-71
2023/08/07 01:48:07;;;;;;;3.63;1.30;;;;;;;21.22;53.43;101338.25;5003737;28;21008;-74
2023/08/07 01:50:33;;;;;;;4.80;1.63;;;;;;;21.22;53.13;101340.91;5002310;28;20036;-71
2023/08/07 01:52:59;;;;;;;6.30;1.67;;;;;;;21.21;53.35;101340.09;5003213;28;20037;-73
2023/08/07 01:55:24;;;;;;;4.93;1.30;;;;;;;21.20;53.14;101339.25;5002785;28;20042;-72
2023/08/07 01:57:50;;;;;;;4.18;1.40;;;;;;;21.20;53.20;101335.75;5002961;28;20033;-71
2023/08/07 02:00:15;;;;;;;4.15;1.60;;;;;;;21.20;53.12;101347.22;5003131;28;20553;-77
2023/08/07 02:02:40;;;;;;;5.03;1.35;;;;;;;21.20;53.12;101344.56;5002332;28;20085;-81
2023/08/07 02:05:06;;;;;;;4.22;1.40;;;;;;;21.20;52.92;101346.34;5002657;28;20141;-74
2023/08/07 02:07:31;;;;;;;4.93;1.40;;;;;;;21.21;52.95;101348.03;5001102;28;20038;-75
2023/08/07 02:09:57;;;;;;;4.45;1.35;;;;;;;21.20;53.26;101346.34;5001611;28;20403;-71
2023/08/07 02:12:22;;;;;;;5.15;1.90;;;;;;;21.20;52.96;101354.31;5002192;28;20140;-71
2023/08/07 02:14:48;;;;;;;4.55;1.55;;;;;;;21.19;53.25;101356.13;5002164;28;20803;-72
2023/08/07 02:17:13;;;;;;;4.78;1.30;;;;;;;21.17;53.27;101344.81;5001028;28;20038;-82
2023/08/07 02:19:39;;;;;;;4.18;1.30;;;;;;;21.19;52.91;101350.81;5001655;28;20040;-71
2023/08/07 02:22:05;;;;;;;5.30;1.35;;;;;;;21.18;53.20;101356.25;4999870;28;20049;-77
2023/08/07 02:24:31;;;;;;;3.85;1.40;;;;;;;21.18;53.28;101362.38;5001878;28;20550;-72
2023/08/07 02:26:56;;;;;;;3.45;1.30;;;;;;;21.17;53.03;101363.38;5001400;28;20029;-78
2023/08/07 02:29:21;;;;;;;4.95;1.42;;;;;;;21.17;53.24;101358.06;5001669;28;20030;-72
2023/08/07 02:31:47;;;;;;;5.38;1.08;;;;;;;21.18;52.92;101350.94;4999627;28;20034;-76
2023/08/07 02:34:12;;;;;;;6.20;1.58;;;;;;;21.18;52.94;101353.59;5001894;28;20030;-81
2023/08/07 02:36:37;;;;;;;3.65;1.17;;;;;;;21.17;52.84;101343.97;5001037;28;20038;-75
2023/08/07 02:39:04;;;;;;;5.90;1.55;;;;;;;21.17;53.24;101346.63;5001645;28;20025;-80
2023/08/07 02:41:29;;;;;;;3.15;1.10;;;;;;;21.16;53.26;101340.47;5001816;28;20037;-73
2023/08/07 02:43:54;;;;;;;4.53;1.30;;;;;;;21.15;52.80;101338.78;5001302;28;20042;-80
2023/08/07 02:46:19;;;;;;;4.30;1.67;;;;;;;21.15;52.72;101343.25;5001033;28;20045;-73
2023/08/07 02:48:45;;;;;;;3.70;1.20;;;;;;;21.16;52.96;101339.66;5001571;28;20052;-79
2023/08/07 02:51:10;;;;;;;4.70;1.30;;;;;;;21.15;53.13;101346.75;5001158;28;20491;-72
2023/08/07 02:53:36;;;;;;;3.78;1.38;;;;;;;21.16;52.74;101342.31;5001778;28;20048;-75
2023/08/07 02:56:01;;;;;;;3.25;1.33;;;;;;;21.14;53.30;101338.94;4999006;28;20038;-72
2023/08/07 02:58:26;;;;;;;4.28;1.20;;;;;;;21.15;52.95;101343.25;5001008;28;20033;-74
2023/08/07 03:00:51;;;;;;;4.10;1.33;;;;;;;21.14;53.19;101338.94;5001246;28;20034;-73
2023/08/07 03:03:17;;;;;;;3.90;1.35;;;;;;;21.12;53.13;101338.22;5001533;28;20050;-72
2023/08/07 03:05:50;;;;;;;4.97;1.52;;;;;;;21.12;53.04;101338.22;4999580;28;20048;-75
2023/08/07 03:08:15;;;;;;;4.72;1.40;;;;;;;21.14;53.04;101345.09;5001844;28;20037;-74
2023/08/07 03:10:41;;;;;;;5.38;1.50;;;;;;;21.12;52.86;101339.06;4999905;28;20034;-72
2023/08/07 03:13:06;;;;;;;4.13;1.45;;;;;;;21.13;52.86;101348.69;5000972;28;20138;-72
2023/08/07 03:15:31;;;;;;;6.55;1.50;;;;;;;21.13;53.01;101354.00;5000852;28;20069;-79
2023/08/07 03:17:57;;;;;;;4.88;1.50;;;;;;;21.12;52.81;101348.81;5000593;28;20040;-72
2023/08/07 03:20:22;;;;;;;4.53;1.45;;;;;;;21.11;52.81;101348.00;5015223;28;20041;-77
2023/08/07 03:22:47;;;;;;;4.33;1.37;;;;;;;21.12;52.91;101354.13;5000848;28;20398;-72
2023/08/07 03:25:13;;;;;;;3.63;1.40;;;;;;;21.12;53.05;101354.13;5001259;28;20282;-76
2023/08/07 03:27:38;;;;;;;5.25;1.40;;;;;;;21.11;52.93;101345.34;5000354;28;20471;-82
2023/08/07 03:30:04;;;;;;;5.45;1.70;;;;;;;21.11;52.92;101334.75;5001429;28;20088;-73
2023/08/07 03:32:29;;;;;;;5.22;1.55;;;;;;;21.10;53.15;101335.72;5000494;28;20087;-73
2023/08/07 03:34:55;;;;;;;3.00;1.13;;;;;;;21.11;52.86;101333.88;5000928;28;20038;-72
2023/08/07 03:37:20;;;;;;;3.90;1.27;;;;;;;21.12;53.12;101330.28;5000388;28;20030;-72
2023/08/07 03:39:47;;;;;;;4.13;1.50;;;;;;;21.08;52.83;101327.06;5013652;28;20030;-71
2023/08/07 03:42:15;;;;;;;4.28;1.40;;;;;;;21.10;52.82;101330.41;5000530;28;20048;-75
2023/08/07 03:44:40;;;;;;;3.60;1.40;;;;;;;21.09;52.82;101322.59;5000509;28;20095;-73
2023/08/07 03:47:05;;;;;;;5.28;1.48;;;;;;;21.09;53.08;101322.59;5000195;28;20042;-73
2023/08/07 03:49:31;;;;;;;4.28;1.50;;;;;;;21.10;52.67;101324.28;5000524;28;20391;-72
2023/08/07 03:51:58;;;;;;;5.47;1.48;;;;;;;21.10;52.87;101337.53;5000708;28;20038;-71
2023/08/07 03:54:24;;;;;;;4.80;1.70;;;;;;;21.10;53.03;101332.22;5000175;28;20056;-74
2023/08/07 03:56:51;;;;;;;5.10;1.30;;;;;;;21.08;52.76;101329.72;5001792;28;20483;-71
2023/08/07 03:59:17;;;;;;;5.10;1.55;;;;;;;21.09;52.96;101331.38;5003304;28;20517;-72
2023/08/07 04:01:42;;;;;;;5.55;1.50;;;;;;;21.09;52.80;101327.88;5002168;28;20096;-78
2023/08/07 04:04:07;;;;;;;3.97;1.60;;;;;;;21.08;52.69;101328.84;5005060;28;20173;-70
2023/08/07 04:06:33;;;;;;;3.95;1.58;;;;;;;21.09;52.71;101343.78;5004620;28;20128;-77
2023/08/07 04:08:58;;;;;;;5.43;1.50;;;;;;;21.07;52.82;101340.44;5003907;28;20140;-71
2023/08/07 04:11:23;;;;;;;5.22;1.60;;;;;;;21.08;52.80;101339.44;5003966;28;20267;-77
2023/08/07 04:13:49;;;;;;;4.50;1.65;;;;;;;21.06;52.42;101338.75;5004710;28;20094;-71
2023/08/07 04:16:14;;;;;;;4.00;1.73;;;;;;;21.07;52.84;101340.44;5004058;28;20048;-74
2023/08/07 04:18:39;;;;;;;6.90;1.75;;;;;;;21.06;52.59;101341.41;5004099;28;20033;-71
2023/08/07 04:21:05;;;;;;;4.18;1.52;;;;;;;21.06;52.81;101347.56;5003405;28;20033;-73
2023/08/07 04:23:31;;;;;;;5.10;1.70;;;;;;;21.06;52.62;101344.91;5004124;28;20037;-70
2023/08/07 04:25:57;;;;;;;6.57;1.70;;;;;;;21.05;52.71;101347.69;5004052;28;20041;-77
2023/08/07 04:28:23;;;;;;;3.97;1.52;;;;;;;21.04;52.55;101346.84;5004197;28;20041;-77
2023/08/07 04:30:53;;;;;;;4.93;1.50;;;;;;;21.05;52.60;101358.28;5002430;28;20470;-76
2023/08/07 04:33:20;;;;;;;4.30;1.48;;;;;;;21.05;52.23;101353.00;5003721;28;20144;-77
2023/08/07 04:35:46;;;;;;;4.45;1.80;;;;;;;21.04;52.84;101348.66;5003291;28;20029;-81
2023/08/07 04:38:12;;;;;;;4.68;1.65;;;;;;;21.04;52.67;101348.66;5003493;28;20038;-79
2023/08/07 04:40:44;;;;;;;4.30;1.58;;;;;;;21.02;52.45;101354.91;5003578;28;20140;-74
2023/08/07 04:43:10;;;;;;;5.18;1.70;;;;;;;21.04;52.46;101364.56;5003265;28;20475;-72
2023/08/07 04:45:37;;;;;;;4.50;1.80;;;;;;;21.05;52.82;101360.94;5003566;28;20049;-81
2023/08/07 04:48:03;;;;;;;4.38;1.60;;;;;;;21.03;52.73;101358.44;5003642;28;20041;-71
2023/08/07 04:50:29;;;;;;;5.25;1.80;;;;;;;21.03;52.66;101363.72;5003119;28;20034;-77
2023/08/07 04:52:54;;;;;;;4.05;1.38;;;;;;;21.03;52.27;101353.13;5003237;28;20096;-77
2023/08/07 04:55:20;;;;;;;4.93;1.75;;;;;;;21.02;52.52;101352.25;5003304;28;20033;-75
2023/08/07 04:57:46;;;;;;;4.03;1.40;;;;;;;21.02;52.63;101360.22;5002469;28;20084;-82
2023/08/07 05:00:13;;;;;;;10.15;2.22;;;;;;;21.04;52.44;101362.72;5003584;28;20026;-72
2023/08/07 05:02:39;;;;;;;4.93;2.15;;;;;;;21.01;52.51;101363.84;5002737;28;20396;-71
2023/08/07 05:05:04;;;;;;;5.00;1.55;;;;;;;21.02;52.57;101362.88;5002977;28;20100;-72
2023/08/07 05:07:32;;;;;;;4.60;1.52;;;;;;;21.02;52.51;101364.69;5001657;28;20409;-73
2023/08/07 05:09:59;;;;;;;4.82;1.67;;;;;;;21.02;52.46;101369.97;5002253;28;20072;-78
2023/08/07 05:12:24;;;;;;;5.18;1.50;;;;;;;21.01;52.06;101363.00;5002675;28;20034;-69
2023/08/07 05:14:50;;;;;;;6.88;2.03;;;;;;;21.00;52.47;101364.81;5003510;28;20030;-76
2023/08/07 05:17:15;;;;;;;4.47;1.50;;;;;;;21.00;52.11;101375.41;5002466;28;20529;-78
2023/08/07 05:19:40;;;;;;;5.10;1.63;;;;;;;21.01;52.12;101379.75;5002898;28;20040;-75
2023/08/07 05:22:06;;;;;;;5.10;1.60;;;;;;;21.01;52.41;101385.06;5003497;28;20038;-79
2023/08/07 05:24:38;;;;;;;4.65;1.42;;;;;;;20.99;52.27;101376.38;5003132;28;20100;-73
2023/08/07 05:27:04;;;;;;;4.55;1.67;;;;;;;21.00;52.18;101371.94;5001552;28;20092;-73
2023/08/07 05:29:30;;;;;;;3.92;1.48;;;;;;;20.99;52.17;101381.66;5003288;28;20037;-71
2023/08/07 05:31:55;;;;;;;3.97;1.50;;;;;;;20.99;52.16;101388.78;5002508;28;20352;-78
2023/08/07 05:34:20;;;;;;;4.60;1.50;;;;;;;20.99;52.26;101388.78;5002207;28;20069;-72
2023/08/07 05:36:46;;;;;;;5.55;1.85;;;;;;;20.99;52.36;101386.97;5002446;28;20268;-75
2023/08/07 05:39:11;;;;;;;4.60;1.40;;;;;;;20.99;52.07;101394.09;5002470;28;20040;-72
2023/08/07 05:41:38;;;;;;;4.60;1.50;;;;;;;20.99;52.22;101402.03;5002463;28;20025;-79
2023/08/07 05:44:03;;;;;;;4.57;1.45;;;;;;;20.97;51.94;101396.88;5002812;28;20149;-79
2023/08/07 05:46:28;;;;;;;4.40;1.50;;;;;;;20.98;52.03;101410.94;5002714;28;20112;-78
2023/08/07 05:48:54;;;;;;;4.65;1.50;;;;;;;20.97;52.13;101412.75;5001989;28;20037;-74
2023/08/07 05:51:19;;;;;;;4.25;1.38;;;;;;;20.97;51.89;101415.41;5002849;28;20041;-81
2023/08/07 05:53:44;;;;;;;4.30;1.50;;;;;;;20.96;52.29;101419.03;5000683;28;20492;-73
2023/08/07 05:56:10;;;;;;;4.10;1.60;;;;;;;20.97;52.15;101422.53;5000604;28;20037;-79
2023/08/07 05:58:35;;;;;;;3.97;1.60;;;;;;;20.97;52.21;101420.72;5002929;28;20151;-73
2023/08/07 06:01:00;;;;;;;3.72;1.30;;;;;;;20.96;52.16;101413.72;5001983;28;20900;-78
2023/08/07 06:03:26;;;;;;;5.65;1.50;;;;;;;20.95;51.97;101416.50;5002249;28;20054;-74
2023/08/07 06:05:51;;;;;;;5.68;2.05;;;;;;;20.95;52.41;101417.38;5002425;28;20030;-72
2023/08/07 06:08:17;;;;;;;4.95;1.70;;;;;;;20.95;52.08;101414.72;5000779;28;20055;-73
2023/08/07 06:10:42;;;;;;;4.00;1.40;;;;;;;20.95;52.09;101417.38;5001708;28;20042;-72
2023/08/07 06:13:08;;;;;;;5.70;1.88;;;;;;;20.95;52.18;101422.66;5001710;28;20037;-72
2023/08/07 06:15:33;;;;;;;4.13;1.48;;;;;;;20.95;52.24;101417.38;4999820;28;20041;-78
2023/08/07 06:17:59;;;;;;;5.05;2.00;;;;;;;20.94;52.26;101428.91;5002596;28;20034;-71
2023/08/07 06:20:24;;;;;;;4.97;1.63;;;;;;;20.94;52.32;101426.28;4999837;28;20111;-73
2023/08/07 06:22:50;;;;;;;4.07;1.45;;;;;;;20.94;52.38;101428.91;5001152;28;20111;-78
2023/08/07 06:25:15;;;;;;;4.32;1.35;;;;;;;20.92;51.97;101430.88;5001941;28;20033;-70
2023/08/07 06:27:40;;;;;;;6.68;1.60;;;;;;;20.92;52.44;101433.53;5000400;28;20034;-77
2023/08/07 06:30:06;;;;;;;4.70;1.70;;;;;;;20.93;52.24;101432.53;5016191;28;20037;-72
2023/08/07 06:32:32;;;;;;;4.03;1.52;;;;;;;20.93;52.64;101437.81;5016585;28;20034;-72
2023/08/07 06:34:58;;;;;;;3.88;1.80;;;;;;;20.93;52.88;101442.28;5001366;28;20058;-76
2023/08/07 06:37:23;;;;;;;4.63;1.50;;;;;;;20.93;52.85;101451.06;5000313;28;20475;-73
2023/08/07 06:39:48;;;;;;;7.30;2.65;;;;;;;20.95;53.00;101453.59;5001012;28;20030;-75
2023/08/07 06:42:14;;;;;;;5.40;1.67;;;;;;;20.94;53.26;101458.06;5002457;28;20034;-73
2023/08/07 06:44:39;;;;;;;5.43;2.30;;;;;;;20.95;53.19;101461.53;5002016;28;20030;-75
2023/08/07 06:47:05;;;;;;;4.35;1.50;;;;;;;20.93;52.91;101455.53;5002110;28;20399;-81
2023/08/07 06:49:31;;;;;;;4.80;1.42;;;;;;;20.93;53.27;101456.38;5001544;28;20036;-73
2023/08/07 06:51:58;;;;;;;5.03;1.52;;;;;;;20.93;53.28;101451.06;5000840;28;20060;-74
2023/08/07 06:54:23;;;;;;;6.70;1.65;;;;;;;20.93;53.17;101459.03;5001648;28;20030;-76
2023/08/07 06:56:49;;;;;;;7.43;1.95;;;;;;;20.93;53.31;101456.38;5004616;28;20029;-75
2023/08/07 06:59:14;;;;;;;5.82;1.60;;;;;;;20.94;53.47;101452.75;5001666;28;20437;-72
2023/08/07 07:01:39;;;;;;;5.70;2.28;;;;;;;20.94;53.58;101455.41;5001453;28;20044;-77
2023/08/07 07:04:05;;;;;;;5.22;1.60;;;;;;;20.94;53.34;101457.22;5001119;28;20054;-80
2023/08/07 07:06:30;;;;;;;5.25;1.60;;;;;;;20.95;53.61;101461.53;5001488;28;20021;-77
2023/08/07 07:08:55;;;;;;;5.07;1.83;;;;;;;20.96;53.23;101466.72;5000885;28;20065;-78
2023/08/07 07:11:24;;;;;;;4.10;1.63;;;;;;;20.98;53.58;101469.25;5000812;28;20036;-77
2023/08/07 07:13:50;;;;;;;4.68;1.70;;;;;;;20.97;53.31;101470.22;5001195;28;20033;-71
2023/08/07 07:16:17;;;;;;;4.50;1.40;;;;;;;20.99;53.76;101468.28;5001695;28;20810;-77
2023/08/07 07:18:43;;;;;;;3.75;1.58;;;;;;;20.99;53.59;101470.94;5000521;28;20030;-73
2023/08/07 07:21:08;;;;;;;6.30;1.63;;;;;;;20.98;53.90;101474.53;5000939;28;20038;-72
2023/08/07 07:23:33;;;;;;;3.97;1.38;;;;;;;20.97;53.62;101484.31;5000691;28;20413;-72
2023/08/07 07:25:58;;;;;;;4.68;1.80;;;;;;;20.99;54.08;101492.97;5000243;28;20091;-72
2023/08/07 07:28:24;;;;;;;4.20;1.60;;;;;;;20.99;53.68;101490.31;4999690;28;20025;-73
2023/08/07 07:30:50;;;;;;;4.88;1.80;;;;;;;21.00;53.87;101489.34;5001783;28;20475;-72
2023/08/07 07:33:16;;;;;;;4.88;1.58;;;;;;;21.01;53.88;101493.69;5001138;28;20470;-73
2023/08/07 07:35:42;;;;;;;5.03;1.75;;;;;;;21.02;53.67;101492.72;5000096;28;20052;-72
2023/08/07 07:38:07;;;;;;;5.90;1.90;;;;;;;21.03;54.09;101498.88;5001792;28;20037;-74
2023/08/07 07:40:34;;;;;;;5.80;1.58;;;;;;;21.05;53.92;101499.56;5001804;28;20129;-78
2023/08/07 07:42:59;;;;;;;6.97;1.70;;;;;;;21.05;53.58;101504.88;4996880;28;20041;-76
2023/08/07 07:45:24;;;;;;;5.55;1.80;;;;;;;21.06;53.76;101503.06;5002272;28;20037;-75
2023/08/07 07:47:50;;;;;;;6.83;1.60;;;;;;;21.05;53.95;101501.38;4871438;28;20108;-78
2023/08/07 07:50:15;;;;;;;4.88;1.50;;;;;;;21.04;54.01;101505.81;5001985;28;20267;-74
2023/08/07 07:52:40;;;;;;;4.85;1.40;;;;;;;21.04;53.79;101516.44;5001210;28;20069;-79
2023/08/07 07:55:07;;;;;;;4.32;1.60;;;;;;;21.05;53.97;101518.13;5001884;28;20030;-73
2023/08/07 07:57:33;;;;;;;4.50;1.60;;;;;;;21.04;54.16;101513.78;4999598;28;20061;-75
2023/08/07 07:59:58;;;;;;;12.70;1.88;;;;;;;21.04;53.84;101518.25;4998269;28;20076;-73
2023/08/07 08:02:24;;;;;;;6.35;1.40;;;;;;;20.99;54.40;101515.97;4998800;28;20100;-73
2023/08/07 08:04:51;;;;;;;4.47;1.42;;;;;;;20.94;54.30;101524.31;4997697;28;20107;-74
2023/08/07 08:07:16;;;;;;;5.70;1.58;;;;;;;20.89;54.66;101528.31;5011254;28;20460;-74
2023/08/07 08:09:42;;;;;;;7.07;1.60;;;;;;;20.86;54.65;101533.88;4999918;28;20029;-71
2023/08/07 08:12:08;;;;;;;6.00;1.58;;;;;;;20.83;54.89;101527.84;4999905;28;20048;-74
2023/08/07 08:14:33;;;;;;;6.95;1.40;;;;;;;20.82;54.44;101534.13;4997482;28;20037;-73
2023/08/07 08:16:58;;;;;;;7.15;1.52;;;;;;;20.84;54.70;101529.53;4998340;28;20037;-76
2023/08/07 08:19:24;;;;;;;4.75;1.30;;;;;;;20.85;54.80;101530.34;4995711;28;20034;-73
2023/08/07 08:21:49;;;;;;;6.28;1.58;;;;;;;20.88;54.46;101535.41;4998102;28;20160;-74
2023/08/07 08:24:14;;;;;;;6.85;1.50;;;;;;;20.88;54.54;101530.09;4999343;28;20033;-74
2023/08/07 08:26:40;;;;;;;3.80;1.40;;;;;;;20.90;54.59;101541.41;4999392;28;20025;-73
2023/08/07 08:29:08;;;;;;;4.22;1.48;;;;;;;20.89;54.49;101539.75;4999314;28;20384;-75
2023/08/07 08:31:36;;;;;;;6.15;1.70;;;;;;;20.88;54.50;101535.41;4999001;28;20042;-74
2023/08/07 08:34:02;;;;;;;5.07;1.60;;;;;;;20.88;54.34;101531.94;4999710;28;20053;-75
2023/08/07 08:36:28;;;;;;;4.65;1.17;;;;;;;20.88;54.12;101538.06;4999202;28;20367;-73
2023/08/07 08:38:53;;;;;;;5.50;1.60;;;;;;;20.89;54.33;101537.09;4999503;28;20045;-74
2023/08/07 08:41:19;;;;;;;5.90;1.65;;;;;;;20.91;54.30;101540.44;4999923;28;20037;-74
2023/08/07 08:43:46;;;;;;;5.53;1.48;;;;;;;20.93;54.27;101545.63;4998018;28;20085;-76
2023/08/07 08:46:16;;;;;;;5.78;1.80;;;;;;;20.94;54.00;101547.31;5003353;28;20034;-71
2023/08/07 08:48:46;;;;;;;6.18;1.42;;;;;;;20.98;53.81;101549.59;5003212;28;20030;-73
2023/08/07 08:51:13;;;;;;;5.43;1.58;;;;;;;21.01;54.00;101556.44;5002733;28;20037;-75
2023/08/07 08:53:39;;;;;;;6.72;1.50;;;;;;;20.93;53.82;101554.41;5002205;28;20045;-75
2023/08/07 08:56:06;;;;;;;6.15;1.80;;;;;;;20.94;54.09;101548.16;5002994;28;20026;-75
2023/08/07 08:58:32;;;;;;;5.07;1.30;;;;;;;20.92;54.00;101563.34;5003009;28;20379;-70
2023/08/07 09:00:58;;;;;;;6.38;1.50;;;;;;;20.92;54.16;101557.19;5002499;28;20053;-71
2023/08/07 09:03:24;;;;;;;5.13;1.73;;;;;;;20.92;54.54;101562.47;5001796;28;20129;-76
2023/08/07 09:06:12;;;;;;;5.10;1.67;;;;;;;20.93;54.08;101559.69;5000994;28;20786;-74
2023/08/07 09:08:43;;;;;;;6.07;1.50;;;;;;;20.96;53.71;101566.56;5001619;28;20040;-76
2023/08/07 09:11:10;;;;;;;4.22;1.50;;;;;;;20.98;53.80;101567.28;5000948;28;20061;-75
2023/08/07 09:13:37;;;;;;;5.18;1.70;;;;;;;21.03;53.64;101570.41;5003713;28;20033;-75
2023/08/07 09:16:08;;;;;;;5.15;1.50;;;;;;;21.02;53.60;101568.72;5002752;28;20442;-71
2023/08/07 09:18:34;;;;;;;4.45;1.40;;;;;;;21.04;53.29;101568.59;4984170;28;20066;-75
2023/08/07 09:21:00;;;;;;;3.50;1.30;;;;;;;21.07;53.44;101578.94;5002032;28;20120;-73
2023/08/07 09:23:26;;;;;;;4.13;1.30;;;;;;;21.08;53.49;101580.59;5002161;28;20073;-72
2023/08/07 09:26:04;;;;;;;7.60;1.48;;;;;;;21.05;53.53;101571.13;5001644;28;20124;-71
2023/08/07 09:28:30;;;;;;;4.57;1.48;;;;;;;21.04;53.40;101582.69;5000693;28;20037;-76
2023/08/07 09:30:56;;;;;;;5.32;1.80;;;;;;;21.02;53.69;101576.66;5002267;28;20072;-73
2023/08/07 09:33:29;;;;;;;4.45;1.38;;;;;;;21.02;53.68;101571.38;5001431;28;20066;-73
2023/08/07 09:35:58;;;;;;;5.57;1.80;;;;;;;21.04;53.55;101576.53;5002281;28;20037;-74
2023/08/07 09:38:27;;;;;;;4.88;1.45;;;;;;;21.10;53.44;101574.22;5001683;28;20076;-75
2023/08/07 09:40:52;;;;;;;5.65;1.55;;;;;;;21.10;53.25;101579.53;5000608;28;20372;-75
2023/08/07 09:43:22;;;;;;;6.10;1.50;;;;;;;21.06;53.48;101570.16;5016479;28;20080;-76
2023/08/07 09:45:50;;;;;;;6.07;1.60;;;;;;;21.08;53.57;101584.13;4977381;28;20054;-75
2023/08/07 09:48:24;;;;;;;6.07;1.60;;;;;;;21.08;53.15;101584.13;4110809;28;10000756;-74
2023/08/07 09:50:50;;;;;;;7.80;1.25;;;;;;;21.09;53.26;101591.09;4122430;28;10000840;-71
2023/08/07 09:53:16;;;;;;;5.40;1.55;;;;;;;21.15;52.95;101600.34;5003457;28;20045;-71
2023/08/07 09:55:41;;;;;;;4.45;1.60;;;;;;;21.15;53.05;101587.94;5015829;28;20128;-74
2023/08/07 09:58:12;;;;;;;2.85;1.17;;;;;;;21.12;52.99;101590.84;5001412;28;20034;-75
2023/08/07 10:00:37;;;;;;;4.35;1.50;;;;;;;21.13;52.87;101594.34;5000515;28;20159;-71
2023/08/07 10:03:04;;;;;;;4.63;1.63;;;;;;;21.11;53.16;101596.25;5001754;28;20502;-73
2023/08/07 10:05:30;;;;;;;5.40;1.50;;;;;;;21.11;52.79;101588.31;5001910;28;20045;-78
2023/08/07 10:07:57;;;;;;;5.25;1.48;;;;;;;21.09;53.14;101608.81;5000471;28;20383;-80
2023/08/07 10:10:25;;;;;;;4.75;1.70;;;;;;;21.12;52.66;101585.53;5000171;28;20041;-71
2023/08/07 10:12:52;;;;;;;5.03;1.67;;;;;;;21.17;52.35;101601.06;5001281;28;20061;-74
2023/08/07 10:15:26;;;;;;;4.13;1.23;;;;;;;21.22;52.07;101598.03;4405973;28;10001458;-80
2023/08/07 10:17:51;;;;;;;10.18;1.70;;;;;;;21.22;51.84;101603.34;4986183;28;20092;-73
2023/08/07 10:20:17;;;;;;;6.90;1.60;;;;;;;21.19;52.04;101615.06;5001136;28;20488;-76
2023/08/07 10:22:43;;;;;;;4.65;1.30;;;;;;;21.17;52.48;101609.00;5001127;28;20041;-75
2023/08/07 10:25:09;;;;;;;6.45;1.73;;;;;;;21.15;52.41;101616.25;4999966;28;20565;-73
2023/08/07 10:27:50;;;;;;;5.47;1.50;;;;;;;21.15;52.42;101613.59;4999336;28;20030;-78
2023/08/07 10:30:19;;;;;;;6.35;1.60;;;;;;;21.18;51.96;101610.69;5001467;28;20908;-79
2023/08/07 10:32:45;;;;;;;5.60;1.60;;;;;;;21.16;52.13;101608.19;5000148;28;20827;-73
2023/08/07 10:35:23;;;;;;;4.55;1.25;;;;;;;21.15;52.63;101613.59;4999915;28;20026;-73
2023/08/07 10:37:51;;;;;;;4.93;1.35;;;;;;;21.17;52.54;101606.34;5000666;28;20026;-76
2023/08/07 10:40:17;;;;;;;6.63;1.77;;;;;;;21.17;52.26;101616.97;5003611;28;20072;-68
2023/08/07 10:42:54;;;;;;;3.92;1.48;;;;;;;21.15;52.83;101629.50;5001890;28;20037;-68
2023/08/07 10:45:22;;;;;;;6.85;1.67;;;;;;;21.15;51.96;101640.09;5000488;28;20966;-79
2023/08/07 10:48:10;;;;;;;5.38;1.65;;;;;;;21.23;52.56;101620.94;5000779;28;20037;-74
2023/08/07 10:50:46;;;;;;;4.75;1.55;;;;;;;21.40;51.61;101622.19;4998748;28;20735;-78
2023/08/07 10:53:21;;;;;;;6.35;1.50;;;;;;;21.49;51.79;101624.94;5000680;28;20073;-72
2023/08/07 10:55:47;;;;;;;5.97;1.63;;;;;;;21.55;51.18;101635.06;5000257;28;20589;-74
2023/08/07 10:58:32;;;;;;;14.48;1.70;;;;;;;21.56;51.13;101646.50;5000962;28;20116;-72
2023/08/07 11:01:22;;;;;;;4.57;1.48;;;;;;;21.58;51.33;101639.25;4998511;28;20034;-74
2023/08/07 11:03:56;;;;;;;3.72;1.30;;;;;;;21.58;51.34;101644.53;5000273;28;20065;-72
2023/08/07 11:06:33;;;;;;;3.72;1.40;;;;;;;21.59;50.93;101650.69;5000381;28;20490;-76
2023/08/07 11:09:03;;;;;;;4.15;1.30;;;;;;;21.58;51.20;101636.59;5001100;28;21294;-77
2023/08/07 11:11:30;;;;;;;4.32;1.48;;;;;;;21.57;51.34;101640.22;5001039;28;20030;-77
2023/08/07 11:13:55;;;;;;;6.20;1.60;;;;;;;21.56;50.93;101644.66;5000767;28;20042;-74
2023/08/07 11:16:21;;;;;;;4.22;1.40;;;;;;;21.50;51.07;101631.09;5001080;28;20038;-72
2023/08/07 11:18:47;;;;;;;5.68;1.77;;;;;;;21.53;51.08;101636.13;5000343;28;20038;-72
2023/08/07 11:21:13;;;;;;;6.68;1.55;;;;;;;21.52;51.47;101645.91;5001010;28;20026;-73
2023/08/07 11:23:40;;;;;;;6.40;1.70;;;;;;;21.42;51.73;101633.50;4998962;28;20030;-72